createdAt,value
2023-05-19T00:03:24.703Z,85.70
2023-05-19T00:06:31.580Z,85.60
2023-05-19T00:09:39.449Z,86.72
2023-05-19T00:12:46.359Z,86.55
2023-05-19T00:15:53.988Z,85.16
2023-05-19T00:19:00.612Z,84.62
2023-05-19T00:22:07.577Z,84.45
2023-05-19T00:25:14.875Z,84.33
2023-05-19T00:28:21.764Z,84.41
2023-05-19T00:31:21.329Z,84.41
2023-05-19T00:34:28.421Z,84.44
2023-05-19T00:37:35.445Z,84.51
2023-05-19T00:40:43.511Z,84.60
2023-05-19T00:43:44.265Z,84.42
2023-05-19T00:46:51.232Z,84.43
2023-05-19T00:49:58.773Z,84.47
2023-05-19T00:53:05.745Z,84.75
2023-05-19T00:56:12.606Z,85.54
2023-05-19T00:59:19.686Z,85.53
2023-05-19T01:02:27.067Z,85.80
2023-05-19T01:05:35.102Z,86.93
2023-05-19T01:08:35.124Z,86.45
2023-05-19T01:11:42.519Z,85.76
2023-05-19T01:14:51.462Z,86.57
2023-05-19T01:18:01.225Z,86.86
2023-05-19T01:20:53.780Z,86.78
2023-05-19T01:24:00.809Z,86.93
2023-05-19T01:27:19.931Z,85.95
2023-05-19T01:30:49.983Z,85.37
2023-05-19T01:33:56.965Z,85.27
2023-05-19T01:37:04.720Z,85.46
2023-05-19T01:40:11.713Z,85.39
2023-05-19T01:43:19.140Z,84.88
2023-05-19T01:46:10.214Z,84.72
2023-05-19T01:49:17.603Z,84.72
2023-05-19T01:52:26.182Z,84.72
2023-05-19T01:55:33.018Z,85.13
2023-05-19T01:58:56.895Z,84.94
2023-05-19T02:02:28.024Z,84.90
2023-05-19T02:05:43.603Z,84.82
2023-05-19T02:08:50.731Z,84.92
2023-05-19T02:11:58.040Z,85.95
2023-05-19T02:15:13.596Z,86.10
2023-05-19T02:18:20.843Z,87.44
2023-05-19T02:21:30.569Z,86.20
2023-05-19T02:24:37.697Z,85.48
2023-05-19T02:27:45.389Z,85.27
2023-05-19T02:30:52.254Z,84.99
2023-05-19T02:33:59.197Z,86.17
2023-05-19T02:37:06.644Z,89.23
2023-05-19T02:40:13.649Z,89.37
2023-05-19T02:43:21.042Z,89.72
2023-05-19T02:46:28.135Z,90.04
2023-05-19T02:49:35.322Z,89.49
2023-05-19T02:52:42.185Z,89.21
2023-05-19T02:55:49.492Z,88.63
2023-05-19T02:58:56.713Z,89.15
2023-05-19T03:02:06.059Z,89.21
2023-05-19T03:05:12.755Z,88.25
2023-05-19T03:08:20.472Z,88.44
2023-05-19T03:11:30.203Z,87.50
2023-05-19T03:14:37.749Z,87.44
2023-05-19T03:17:55.146Z,87.37
2023-05-19T03:21:02.461Z,86.76
2023-05-19T03:24:09.504Z,86.57
2023-05-19T03:27:16.618Z,86.87
2023-05-19T03:30:43.470Z,88.03
2023-05-19T03:33:51.694Z,88.01
2023-05-19T03:36:59.270Z,88.16
2023-05-19T03:40:06.882Z,89.12
2023-05-19T03:43:13.864Z,89.21
2023-05-19T03:46:20.986Z,89.37
2023-05-19T03:49:30.739Z,88.64
2023-05-19T03:52:37.573Z,88.05
2023-05-19T03:55:45.779Z,87.97
2023-05-19T03:58:52.756Z,87.28
2023-05-19T04:01:59.799Z,87.02
2023-05-19T04:05:08.075Z,86.79
2023-05-19T04:08:15.028Z,88.37
2023-05-19T04:11:22.860Z,90.79
2023-05-19T04:14:29.827Z,90.73
2023-05-19T04:17:36.775Z,90.02
2023-05-19T04:20:44.119Z,88.76
2023-05-19T04:23:50.232Z,88.85
2023-05-19T04:26:57.983Z,86.55
2023-05-19T04:30:05.212Z,86.45
2023-05-19T04:33:12.596Z,86.27
2023-05-19T04:36:19.817Z,88.70
2023-05-19T04:39:26.856Z,89.21
2023-05-19T04:42:33.910Z,89.05
2023-05-19T04:45:41.352Z,90.11
2023-05-19T04:48:48.319Z,89.38
2023-05-19T04:51:55.965Z,89.70
2023-05-19T04:54:45.900Z,89.74
2023-05-19T04:57:52.694Z,89.51
2023-05-19T05:00:59.901Z,90.83
2023-05-19T05:04:08.697Z,90.78
2023-05-19T05:07:15.984Z,91.16
2023-05-19T05:10:23.264Z,91.60
2023-05-19T05:13:34.300Z,91.34
2023-05-19T05:16:42.025Z,91.67
2023-05-19T05:19:30.154Z,91.51
2023-05-19T05:22:57.187Z,91.40
2023-05-19T05:26:08.806Z,92.06
2023-05-19T05:29:16.633Z,91.75
2023-05-19T05:32:24.121Z,91.46
2023-05-19T05:35:32.864Z,92.06
2023-05-19T05:38:40.282Z,91.94
2023-05-19T05:41:47.286Z,91.62
2023-05-19T05:44:56.101Z,91.38
2023-05-19T05:48:03.131Z,91.36
2023-05-19T05:51:10.224Z,90.47
2023-05-19T05:54:27.505Z,90.64
2023-05-19T05:57:42.656Z,90.43
2023-05-19T06:00:52.045Z,90.35
2023-05-19T06:04:19.165Z,91.11
2023-05-19T06:07:26.096Z,90.85
2023-05-19T06:10:33.765Z,91.20
2023-05-19T06:13:44.921Z,91.03
2023-05-19T06:16:53.876Z,90.82
2023-05-19T06:20:07.368Z,89.85
2023-05-19T06:23:15.214Z,89.96
2023-05-19T06:26:22.118Z,90.24
2023-05-19T06:29:29.576Z,90.03
2023-05-19T06:32:47.034Z,88.51
2023-05-19T06:35:55.157Z,89.17
2023-05-19T06:39:03.077Z,89.56
2023-05-19T06:42:10.002Z,89.04
2023-05-19T06:45:15.093Z,88.09
2023-05-19T06:48:22.133Z,87.46
2023-05-19T06:51:29.177Z,87.98
2023-05-19T06:54:27.519Z,88.53
2023-05-19T06:57:39.987Z,88.79
2023-05-19T07:00:52.414Z,87.39
2023-05-19T07:03:59.568Z,87.77
2023-05-19T07:07:06.645Z,86.20
2023-05-19T07:10:14.738Z,86.52
2023-05-19T07:13:23.270Z,86.28
2023-05-19T07:16:31.343Z,86.76
2023-05-19T07:19:23.718Z,86.92
2023-05-19T07:22:23.226Z,85.69
2023-05-19T07:25:30.114Z,86.33
2023-05-19T07:28:38.164Z,88.40
2023-05-19T07:31:46.259Z,88.55
2023-05-19T07:34:53.615Z,88.12
2023-05-19T07:37:52.110Z,87.27
2023-05-19T07:40:59.084Z,86.99
2023-05-19T07:44:06.359Z,86.49
2023-05-19T07:47:13.651Z,86.60
2023-05-19T07:50:14.496Z,87.32
2023-05-19T07:53:22.507Z,86.10
2023-05-19T07:56:29.585Z,85.78
2023-05-19T07:59:36.978Z,86.39
2023-05-19T08:03:04.991Z,86.26
2023-05-19T08:06:13.256Z,85.99
2023-05-19T08:09:22.069Z,85.84
2023-05-19T08:12:48.861Z,86.82
2023-05-19T08:15:59.879Z,87.55
2023-05-19T08:22:34.800Z,88.39
2023-05-19T08:25:41.883Z,86.95
2023-05-19T08:28:49.666Z,87.20
2023-05-19T08:31:58.645Z,86.36
2023-05-19T08:35:11.211Z,83.79
2023-05-19T08:38:43.009Z,85.25
2023-05-19T08:41:50.941Z,85.90
2023-05-19T08:44:57.987Z,84.96
2023-05-19T08:48:05.247Z,86.25
2023-05-19T08:51:12.444Z,87.51
2023-05-19T08:54:27.141Z,87.35
2023-05-19T08:57:44.738Z,85.29
2023-05-19T09:01:12.430Z,85.98
2023-05-19T09:04:19.466Z,85.73
2023-05-19T09:07:26.550Z,84.03
2023-05-19T09:10:37.747Z,84.80
2023-05-19T09:14:50.340Z,85.54
2023-05-19T09:17:33.040Z,83.86
2023-05-19T09:20:40.291Z,84.81
2023-05-19T09:24:12.234Z,84.60
2023-05-19T09:27:23.683Z,83.63
2023-05-19T09:30:31.836Z,84.22
2023-05-19T09:37:25.372Z,81.68
2023-05-19T09:40:38.350Z,82.76
2023-05-19T09:44:08.446Z,82.65
2023-05-19T09:47:17.749Z,82.48
2023-05-19T09:50:24.741Z,84.16
2023-05-19T09:53:48.355Z,83.60
2023-05-19T09:56:56.245Z,83.48
2023-05-19T10:00:12.622Z,82.35
2023-05-19T10:02:59.493Z,81.30
2023-05-19T10:06:07.103Z,82.58
2023-05-19T10:09:14.683Z,82.38
2023-05-19T10:12:21.804Z,83.05
2023-05-19T10:15:29.623Z,82.33
2023-05-19T10:18:57.121Z,82.40
2023-05-19T10:22:04.919Z,81.41
2023-05-19T10:25:32.127Z,82.78
2023-05-19T10:28:50.256Z,82.13
2023-05-19T10:32:17.267Z,82.19
2023-05-19T10:35:44.565Z,83.01
2023-05-19T10:39:01.389Z,81.31
2023-05-19T10:42:09.389Z,84.96
2023-05-19T10:50:59.499Z,80.28
2023-05-19T10:53:30.079Z,82.58
2023-05-19T11:01:13.868Z,80.77
2023-05-19T11:04:58.399Z,81.34
2023-05-19T11:12:07.580Z,82.85
2023-05-19T11:16:12.018Z,81.89
2023-05-19T11:18:59.838Z,83.18
2023-05-19T11:22:43.223Z,81.52
2023-05-19T11:26:05.760Z,79.13
2023-05-19T11:29:12.758Z,79.25
2023-05-19T11:32:12.835Z,81.43
2023-05-19T11:35:57.100Z,78.49
2023-05-19T11:39:20.999Z,78.68
2023-05-19T11:42:36.837Z,78.71
2023-05-19T11:46:04.610Z,78.70
2023-05-19T11:49:11.583Z,78.27
2023-05-19T11:52:20.894Z,75.26
2023-05-19T11:55:27.936Z,77.56
2023-05-19T11:58:34.974Z,79.30
2023-05-19T12:07:43.894Z,77.55
2023-05-19T12:10:51.951Z,79.60
2023-05-19T12:13:59.033Z,77.29
2023-05-19T12:21:09.681Z,80.42
2023-05-19T12:23:59.790Z,81.29
2023-05-19T12:27:06.965Z,81.21
2023-05-19T12:32:30.535Z,80.93
2023-05-19T12:38:30.944Z,81.09
2023-05-19T12:41:37.854Z,80.66
2023-05-19T12:44:40.087Z,80.91
2023-05-19T12:47:51.330Z,79.01
2023-05-19T12:51:00.730Z,81.06
2023-05-19T12:54:17.162Z,81.41
2023-05-19T12:57:26.702Z,79.03
2023-05-19T13:00:54.131Z,81.32
2023-05-19T13:04:03.268Z,82.89
2023-05-19T13:07:11.817Z,81.41
2023-05-19T13:10:18.909Z,77.97
2023-05-19T13:13:25.887Z,81.15
2023-05-19T13:16:35.794Z,80.49
2023-05-19T13:19:43.863Z,81.56
2023-05-19T13:22:49.666Z,82.60
2023-05-19T13:25:56.634Z,84.27
2023-05-19T13:29:03.693Z,79.49
2023-05-19T13:32:10.971Z,80.37
2023-05-19T13:35:18.066Z,81.67
2023-05-19T13:38:24.933Z,81.90
2023-05-19T13:41:31.862Z,82.95
2023-05-19T13:44:38.775Z,82.59
2023-05-19T13:47:45.777Z,80.05
2023-05-19T13:50:52.746Z,81.09
2023-05-19T13:53:59.674Z,83.65
2023-05-19T13:57:06.702Z,82.92
2023-05-19T14:00:07.288Z,84.20
2023-05-19T14:03:22.142Z,82.85
2023-05-19T14:06:29.140Z,83.25
2023-05-19T14:09:35.673Z,83.38
2023-05-19T14:13:06.441Z,81.25
2023-05-19T14:16:10.849Z,83.23
2023-05-19T14:19:18.130Z,82.78
2023-05-19T14:22:26.094Z,82.80
2023-05-19T14:25:33.105Z,83.59
2023-05-19T14:28:41.818Z,85.11
2023-05-19T14:31:48.925Z,84.75
2023-05-19T14:34:56.221Z,83.95
2023-05-19T14:38:03.114Z,83.48
2023-05-19T14:41:10.437Z,83.87
2023-05-19T14:44:14.833Z,82.44
2023-05-19T14:47:22.489Z,84.24
2023-05-19T14:50:29.545Z,85.44
2023-05-19T14:53:36.484Z,86.16
2023-05-19T14:56:43.283Z,84.63
2023-05-19T14:59:41.137Z,83.69
2023-05-19T15:02:48.136Z,85.33
2023-05-19T15:05:55.154Z,86.22
2023-05-19T15:09:02.192Z,86.08
2023-05-19T15:12:09.332Z,84.83
2023-05-19T15:15:17.598Z,85.48
2023-05-19T15:18:24.506Z,85.25
2023-05-19T15:21:32.571Z,86.04
2023-05-19T15:24:39.908Z,85.54
2023-05-19T15:27:46.865Z,86.01
2023-05-19T15:30:57.703Z,85.14
2023-05-19T15:34:05.072Z,86.76
2023-05-19T15:37:12.122Z,87.68
2023-05-19T15:40:19.262Z,87.35
2023-05-19T15:43:25.042Z,87.58
2023-05-19T15:46:32.852Z,86.48
2023-05-19T15:49:45.876Z,87.61
2023-05-19T15:52:52.916Z,88.18
2023-05-19T15:55:59.836Z,87.96
2023-05-19T15:59:06.869Z,88.82
2023-05-19T16:02:13.877Z,87.68
2023-05-19T16:05:20.984Z,87.32
2023-05-19T16:08:20.446Z,86.95
2023-05-19T16:11:28.356Z,87.03
2023-05-19T16:14:35.402Z,86.70
2023-05-19T16:17:42.403Z,86.61
2023-05-19T16:20:49.556Z,87.87
2023-05-19T16:23:56.989Z,86.80
2023-05-19T16:27:04.973Z,87.49
2023-05-19T16:30:12.131Z,86.89
2023-05-19T16:33:22.702Z,87.58
2023-05-19T16:36:30.783Z,87.70
2023-05-19T16:39:37.851Z,88.93
2023-05-19T16:42:45.808Z,89.21
2023-05-19T16:45:53.654Z,88.55
2023-05-19T16:49:01.529Z,88.45
2023-05-19T16:52:08.557Z,89.09
2023-05-19T16:55:16.518Z,89.14
2023-05-19T16:58:23.949Z,89.22
2023-05-19T17:01:29.402Z,89.36
2023-05-19T17:04:37.006Z,89.96
2023-05-19T17:07:44.464Z,90.02
2023-05-19T17:10:54.036Z,90.12
2023-05-19T17:14:01.386Z,90.20
2023-05-19T17:17:09.007Z,89.15
2023-05-19T17:20:15.905Z,89.23
2023-05-19T17:23:23.327Z,89.73
2023-05-19T17:26:32.000Z,89.85
2023-05-19T17:29:39.370Z,90.23
2023-05-19T17:32:46.995Z,90.32
2023-05-19T17:35:55.094Z,90.88
2023-05-19T17:39:02.364Z,90.93
2023-05-19T17:42:09.969Z,90.58
2023-05-19T17:45:19.011Z,90.09
2023-05-19T17:48:47.018Z,90.56
2023-05-19T17:51:54.690Z,91.12
2023-05-19T17:55:02.528Z,90.91
2023-05-19T17:58:10.231Z,90.95
2023-05-19T18:01:17.499Z,90.75
2023-05-19T18:04:24.718Z,91.59
2023-05-19T18:07:32.581Z,91.92
2023-05-19T18:10:39.717Z,92.06
2023-05-19T18:13:46.872Z,91.41
2023-05-19T18:16:56.723Z,91.23
2023-05-19T18:20:04.150Z,91.41
2023-05-19T18:23:11.052Z,90.70
2023-05-19T18:26:22.548Z,91.07
2023-05-19T18:29:31.504Z,91.28
2023-05-19T18:32:38.795Z,90.39
2023-05-19T18:35:49.896Z,90.76
2023-05-19T18:39:00.175Z,90.93
2023-05-19T18:42:11.746Z,91.31
2023-05-19T18:45:18.840Z,91.17
2023-05-19T18:48:27.601Z,91.28
2023-05-19T18:51:33.149Z,90.98
2023-05-19T18:54:40.207Z,90.26
2023-05-19T18:57:47.755Z,90.90
2023-05-19T19:01:03.455Z,90.97
2023-05-19T19:04:19.683Z,88.63
2023-05-19T19:07:26.762Z,89.47
2023-05-19T19:10:42.863Z,89.64
2023-05-19T19:13:51.859Z,90.77
2023-05-19T19:17:19.273Z,89.98
2023-05-19T19:20:27.038Z,89.80
2023-05-19T19:23:40.373Z,90.70
2023-05-19T19:26:47.521Z,90.08
2023-05-19T19:29:54.902Z,89.76
2023-05-19T19:33:04.721Z,88.99
2023-05-19T19:36:33.287Z,88.69
2023-05-19T19:39:43.550Z,90.24
2023-05-19T19:43:03.575Z,91.03
2023-05-19T19:46:10.823Z,91.15
2023-05-19T19:49:35.092Z,90.14
2023-05-19T19:52:42.101Z,88.99
2023-05-19T19:55:49.172Z,89.75
2023-05-19T19:58:56.768Z,89.70
2023-05-19T20:02:06.364Z,90.81
2023-05-19T20:05:23.400Z,90.43
2023-05-19T20:08:30.484Z,91.98
2023-05-19T20:11:44.229Z,92.23
2023-05-19T20:15:02.698Z,92.23
2023-05-19T20:18:10.066Z,92.14
2023-05-19T20:21:25.220Z,91.41
2023-05-19T20:24:42.915Z,92.14
2023-05-19T20:27:59.851Z,90.84
2023-05-19T20:31:27.499Z,90.16
2023-05-19T20:34:35.479Z,90.27
2023-05-19T20:37:44.852Z,90.22
2023-05-19T20:40:57.692Z,89.81
2023-05-19T20:44:07.027Z,91.40
2023-05-19T20:47:35.194Z,91.69
2023-05-19T20:50:43.521Z,91.87
2023-05-19T20:57:12.757Z,92.08
2023-05-19T21:00:20.407Z,92.54
2023-05-19T21:03:46.054Z,92.31
2023-05-19T21:07:13.369Z,92.48
2023-05-19T21:10:19.604Z,91.04
2023-05-19T21:13:19.562Z,89.67
2023-05-19T21:16:27.033Z,91.88
2023-05-19T21:19:34.210Z,92.45
2023-05-19T21:22:41.861Z,92.41
2023-05-19T21:25:42.922Z,92.32
2023-05-19T21:28:51.016Z,92.15
2023-05-19T21:31:57.589Z,91.98
2023-05-19T21:35:27.219Z,92.12
2023-05-19T21:38:34.556Z,91.75
2023-05-19T21:41:42.180Z,90.67
2023-05-19T21:48:14.480Z,92.45
2023-05-19T21:51:21.971Z,92.57
2023-05-19T21:54:29.217Z,92.58
2023-05-19T21:58:01.591Z,92.43
2023-05-19T22:01:09.850Z,92.01
2023-05-19T22:04:18.651Z,91.65
2023-05-19T22:07:34.586Z,92.03
2023-05-19T22:10:41.823Z,92.16
2023-05-19T22:13:52.735Z,90.62
2023-05-19T22:16:59.590Z,91.27
2023-05-19T22:19:55.697Z,91.26
2023-05-19T22:23:04.811Z,90.17
2023-05-19T22:26:12.310Z,90.05
2023-05-19T22:29:21.906Z,91.15
2023-05-19T22:32:49.721Z,91.81
2023-05-19T22:35:57.620Z,92.24
2023-05-19T22:39:04.595Z,92.21
2023-05-19T22:42:11.599Z,91.85
2023-05-19T22:45:18.610Z,91.96
2023-05-19T22:48:26.094Z,92.04
2023-05-19T22:51:32.668Z,92.12
2023-05-19T22:54:39.646Z,92.13
2023-05-19T22:57:49.574Z,92.23
2023-05-19T23:00:56.486Z,92.50
2023-05-19T23:04:03.811Z,92.54
2023-05-19T23:07:10.967Z,92.67
2023-05-19T23:10:18.158Z,92.31
2023-05-19T23:13:25.494Z,92.07
2023-05-19T23:16:36.632Z,91.89
2023-05-19T23:19:43.259Z,91.82
2023-05-19T23:22:50.241Z,91.60
2023-05-19T23:25:57.132Z,91.95
2023-05-19T23:29:24.252Z,91.76
2023-05-19T23:32:32.356Z,92.47
2023-05-19T23:35:39.626Z,91.71
2023-05-19T23:38:46.721Z,92.23
2023-05-19T23:41:53.645Z,92.57
2023-05-19T23:45:00.686Z,93.07
2023-05-19T23:48:07.615Z,93.56
2023-05-19T23:51:14.876Z,93.48
2023-05-19T23:54:22.164Z,93.62
2023-05-19T23:57:21.451Z,93.62
